createdAt,value
2023-08-11T00:02:09.036Z,97520.09
2023-08-11T00:04:36.687Z,97518.47
2023-08-11T00:07:05.323Z,97516.97
2023-08-11T00:09:33.412Z,97510.22
2023-08-11T00:12:01.019Z,97512.41
2023-08-11T00:14:28.734Z,97523.88
2023-08-11T00:16:57.312Z,97528.72
2023-08-11T00:19:27.231Z,97519.34
2023-08-11T00:21:54.851Z,97518.69
2023-08-11T00:24:22.542Z,97522.00
2023-08-11T00:26:50.138Z,97524.94
2023-08-11T00:29:18.614Z,97524.84
2023-08-11T00:31:46.819Z,97520.41
2023-08-11T00:34:14.527Z,97510.53
2023-08-11T00:36:43.658Z,97528.41
2023-08-11T00:39:11.263Z,97512.63
2023-08-11T00:41:38.898Z,97531.81
2023-08-11T00:44:06.987Z,97519.97
2023-08-11T00:46:34.793Z,97530.84
2023-08-11T00:49:02.504Z,97533.66
2023-08-11T00:51:30.358Z,97531.19
2023-08-11T00:54:00.530Z,97534.84
2023-08-11T00:56:28.606Z,97532.34
2023-08-11T00:58:56.842Z,97537.66
2023-08-11T01:01:25.647Z,97533.19
2023-08-11T01:03:53.318Z,97532.88
2023-08-11T01:06:27.141Z,97531.41
2023-08-11T01:09:01.550Z,97529.59
2023-08-11T01:11:35.632Z,97532.56
2023-08-11T01:14:06.049Z,97538.34
2023-08-11T01:16:35.068Z,97533.41
2023-08-11T01:19:05.443Z,97526.59
2023-08-11T01:21:35.652Z,97530.78
2023-08-11T01:24:06.032Z,97529.28
2023-08-11T01:26:35.104Z,97530.59
2023-08-11T01:29:02.841Z,97531.75
2023-08-11T01:31:30.432Z,97535.03
2023-08-11T01:33:58.145Z,97535.88
2023-08-11T01:36:26.337Z,97535.72
2023-08-11T01:38:54.137Z,97535.06
2023-08-11T01:41:23.145Z,97521.88
2023-08-11T01:43:52.266Z,97539.38
2023-08-11T01:46:20.265Z,97544.47
2023-08-11T01:48:48.138Z,97537.22
2023-08-11T01:51:15.791Z,97541.22
2023-08-11T01:53:43.684Z,97537.59
2023-08-11T01:56:11.336Z,97540.94
2023-08-11T01:58:40.488Z,97535.66
2023-08-11T02:01:08.793Z,97539.09
2023-08-11T02:03:36.449Z,97541.78
2023-08-11T02:06:04.064Z,97536.63
2023-08-11T02:08:33.031Z,97546.41
2023-08-11T02:11:00.912Z,97543.28
2023-08-11T02:13:30.001Z,97540.44
2023-08-11T02:15:58.974Z,97541.94
2023-08-11T02:18:29.832Z,97542.09
2023-08-11T02:20:57.503Z,97543.94
2023-08-11T02:23:25.193Z,97548.38
2023-08-11T02:25:52.843Z,97549.22
2023-08-11T02:28:20.441Z,97543.44
2023-08-11T02:30:48.386Z,97545.91
2023-08-11T02:33:19.471Z,97549.09
2023-08-11T02:35:47.277Z,97557.16
2023-08-11T02:38:15.770Z,97553.72
2023-08-11T02:40:43.814Z,97558.50
2023-08-11T02:43:11.453Z,97557.53
2023-08-11T02:45:39.218Z,97561.50
2023-08-11T02:48:07.529Z,97568.25
2023-08-11T02:50:36.635Z,97563.81
2023-08-11T02:53:05.690Z,97564.97
2023-08-11T02:55:33.341Z,97563.47
2023-08-11T02:58:00.970Z,97566.94
2023-08-11T03:00:29.920Z,97571.41
2023-08-11T03:02:58.009Z,97571.41
2023-08-11T03:05:25.994Z,97568.75
2023-08-11T03:07:54.953Z,97559.66
2023-08-11T03:10:22.556Z,97561.19
2023-08-11T03:12:50.179Z,97563.81
2023-08-11T03:15:18.249Z,97562.81
2023-08-11T03:17:45.893Z,97569.44
2023-08-11T03:20:14.742Z,97569.09
2023-08-11T03:22:43.178Z,97571.09
2023-08-11T03:25:13.100Z,97564.16
2023-08-11T03:27:43.362Z,97567.44
2023-08-11T03:30:12.867Z,97571.25
2023-08-11T03:32:41.525Z,97570.75
2023-08-11T03:35:09.918Z,97571.09
2023-08-11T03:37:37.611Z,97566.97
2023-08-11T03:40:07.134Z,97569.09
2023-08-11T03:42:36.134Z,97570.44
2023-08-11T03:45:03.981Z,97574.41
2023-08-11T03:47:31.642Z,97582.00
2023-08-11T03:49:59.479Z,97573.88
2023-08-11T03:52:27.084Z,97577.03
2023-08-11T03:54:54.708Z,97583.00
2023-08-11T03:57:22.495Z,97581.34
2023-08-11T03:59:51.497Z,97584.97
2023-08-11T04:02:19.113Z,97584.28
2023-08-11T04:04:47.015Z,97578.19
2023-08-11T04:07:14.652Z,97583.13
2023-08-11T04:09:45.182Z,97583.47
2023-08-11T04:12:12.950Z,97562.00
2023-08-11T04:14:40.633Z,97579.69
2023-08-11T04:17:09.634Z,97585.59
2023-08-11T04:19:37.222Z,97584.59
2023-08-11T04:22:06.465Z,97586.25
2023-08-11T04:24:34.559Z,97590.25
2023-08-11T04:27:02.154Z,97588.59
2023-08-11T04:29:29.839Z,97580.69
2023-08-11T04:31:57.475Z,97586.78
2023-08-11T04:34:26.475Z,97589.41
2023-08-11T04:36:54.768Z,97589.94
2023-08-11T04:39:22.737Z,97590.59
2023-08-11T04:41:51.029Z,97581.84
2023-08-11T04:44:18.691Z,97587.28
2023-08-11T04:46:46.304Z,97583.97
2023-08-11T04:49:13.923Z,97594.22
2023-08-11T04:51:43.850Z,97601.66
2023-08-11T04:54:12.883Z,97598.81
2023-08-11T04:56:40.482Z,97602.13
2023-08-11T04:59:08.441Z,97603.75
2023-08-11T05:01:36.123Z,97597.94
2023-08-11T05:04:05.710Z,97602.38
2023-08-11T05:06:33.684Z,97599.66
2023-08-11T05:09:03.926Z,97602.56
2023-08-11T05:11:32.020Z,97612.53
2023-08-11T05:13:59.642Z,97600.34
2023-08-11T05:16:27.534Z,97595.97
2023-08-11T05:18:55.284Z,97594.53
2023-08-11T05:21:24.122Z,97597.13
2023-08-11T05:23:52.203Z,97591.84
2023-08-11T05:26:21.163Z,97593.13
2023-08-11T05:28:48.742Z,97593.75
2023-08-11T05:31:16.378Z,97577.41
2023-08-11T05:33:44.003Z,97595.03
2023-08-11T05:36:11.675Z,97591.00
2023-08-11T05:38:39.835Z,97602.59
2023-08-11T05:41:07.451Z,97600.22
2023-08-11T05:43:37.480Z,97579.25
2023-08-11T05:46:07.957Z,97592.03
2023-08-11T05:48:37.086Z,97592.47
2023-08-11T05:51:05.379Z,97591.81
2023-08-11T05:53:36.002Z,97593.09
2023-08-11T05:56:03.646Z,97602.63
2023-08-11T05:58:31.744Z,97594.34
2023-08-11T06:01:02.229Z,97592.00
2023-08-11T06:03:32.066Z,97571.34
2023-08-11T06:06:05.358Z,97589.31
2023-08-11T06:08:33.172Z,97594.22
2023-08-11T06:11:00.751Z,97591.13
2023-08-11T06:13:29.382Z,97585.22
2023-08-11T06:15:57.220Z,97584.50
2023-08-11T06:18:26.254Z,97587.13
2023-08-11T06:20:54.398Z,97593.19
2023-08-11T06:23:22.178Z,97589.41
2023-08-11T06:25:50.125Z,97579.84
2023-08-11T06:28:18.665Z,97580.81
2023-08-11T06:30:46.394Z,97576.44
2023-08-11T06:33:14.007Z,97578.34
2023-08-11T06:35:43.479Z,97579.84
2023-08-11T06:38:11.342Z,97584.44
2023-08-11T06:40:39.904Z,97570.53
2023-08-11T06:43:08.159Z,97577.75
2023-08-11T06:45:35.859Z,97576.09
2023-08-11T06:48:03.678Z,97578.78
2023-08-11T06:50:31.428Z,97588.84
2023-08-11T06:53:00.753Z,97583.50
2023-08-11T06:55:28.477Z,97593.38
2023-08-11T06:57:56.146Z,97591.50
2023-08-11T07:00:24.740Z,97592.78
2023-08-11T07:02:52.617Z,97590.69
2023-08-11T07:05:20.575Z,97593.53
2023-08-11T07:07:48.260Z,97599.69
2023-08-11T07:10:17.424Z,97604.59
2023-08-11T07:12:45.092Z,97599.19
2023-08-11T07:15:12.787Z,97609.47
2023-08-11T07:17:40.608Z,97602.03
2023-08-11T07:20:09.325Z,97586.41
2023-08-11T07:22:36.954Z,97608.16
2023-08-11T07:25:05.255Z,97597.03
2023-08-11T07:27:34.216Z,97602.50
2023-08-11T07:30:01.934Z,97603.09
2023-08-11T07:32:29.653Z,97604.22
2023-08-11T07:34:57.330Z,97610.31
2023-08-11T07:37:24.998Z,97614.13
2023-08-11T07:39:52.629Z,97614.75
2023-08-11T07:42:20.270Z,97623.59
2023-08-11T07:44:49.225Z,97623.09
2023-08-11T07:47:16.794Z,97620.16
2023-08-11T07:49:44.395Z,97619.44
2023-08-11T07:52:12.022Z,97622.47
2023-08-11T07:54:39.917Z,97617.69
2023-08-11T07:57:07.882Z,97622.44
2023-08-11T07:59:36.043Z,97625.06
2023-08-11T08:02:06.543Z,97617.22
2023-08-11T08:04:34.212Z,97621.56
2023-08-11T08:07:01.924Z,97627.13
2023-08-11T08:09:30.173Z,97622.69
2023-08-11T08:11:57.906Z,97620.78
2023-08-11T08:14:25.586Z,97624.63
2023-08-11T08:16:53.383Z,97628.34
2023-08-11T08:19:23.063Z,97617.81
2023-08-11T08:21:50.706Z,97617.34
2023-08-11T08:24:18.439Z,97627.16
2023-08-11T08:26:48.998Z,97621.03
2023-08-11T08:29:16.640Z,97616.56
2023-08-11T08:31:44.416Z,97617.53
2023-08-11T08:34:12.225Z,97623.72
2023-08-11T08:36:41.323Z,97618.47
2023-08-11T08:39:09.776Z,97614.41
2023-08-11T08:41:40.225Z,97620.63
2023-08-11T08:44:08.159Z,97613.09
2023-08-11T08:46:36.237Z,97615.72
2023-08-11T08:49:11.876Z,97603.91
2023-08-11T08:51:41.939Z,97607.88
2023-08-11T08:54:11.023Z,97613.66
2023-08-11T08:56:39.495Z,97610.72
2023-08-11T08:59:07.752Z,97612.09
2023-08-11T09:01:36.894Z,97608.69
2023-08-11T09:04:05.705Z,97613.59
2023-08-11T09:06:33.823Z,97615.50
2023-08-11T09:09:03.140Z,97607.53
2023-08-11T09:11:31.214Z,97607.34
2023-08-11T09:14:03.801Z,97599.66
2023-08-11T09:16:33.173Z,97604.22
2023-08-11T09:19:01.053Z,97604.19
2023-08-11T09:21:29.001Z,97602.75
2023-08-11T09:23:57.724Z,97598.69
2023-08-11T09:26:26.677Z,97594.63
2023-08-11T09:28:55.768Z,97597.59
2023-08-11T09:31:23.667Z,97589.31
2023-08-11T09:33:51.315Z,97592.78
